createdAt,value
2019-05-03T00:02:28.086Z,99319.73
2019-05-03T00:07:31.965Z,99319.73
2019-05-03T00:12:35.757Z,99337.78
2019-05-03T00:17:39.716Z,99337.78
2019-05-03T00:22:43.495Z,99344.50
2019-05-03T00:27:47.332Z,99345.00
2019-05-03T00:32:52.170Z,99347.34
2019-05-03T00:37:57.795Z,99344.44
2019-05-03T00:43:02.353Z,99344.44
2019-05-03T00:48:06.322Z,99358.20
2019-05-03T00:53:11.694Z,99358.20
2019-05-03T00:58:15.535Z,99359.86
2019-05-03T01:03:19.346Z,99362.55
2019-05-03T01:08:23.136Z,99358.41
2019-05-03T01:13:26.923Z,99370.83
2019-05-03T01:18:32.404Z,99369.79
2019-05-03T01:23:36.286Z,99372.83
2019-05-03T01:28:40.054Z,99375.45
2019-05-03T01:33:43.882Z,99382.63
2019-05-03T01:38:47.660Z,99392.03
2019-05-03T01:43:52.641Z,99396.23
2019-05-03T01:49:05.720Z,99393.23
2019-05-03T01:54:09.553Z,99393.23
2019-05-03T01:59:13.407Z,99396.67
2019-05-03T02:04:24.159Z,99398.52
2019-05-03T02:09:27.972Z,99402.55
2019-05-03T02:14:31.854Z,99406.23
2019-05-03T02:19:35.602Z,99412.58
2019-05-03T02:24:39.423Z,99412.58
2019-05-03T02:29:43.202Z,99418.77
2019-05-03T02:34:47.002Z,99421.41
2019-05-03T02:39:53.145Z,99421.41
2019-05-03T02:44:57.912Z,99428.25
2019-05-03T02:50:06.012Z,99434.16
2019-05-03T02:55:10.417Z,99445.70
2019-05-03T03:00:16.263Z,99450.95
2019-05-03T03:05:20.002Z,99450.95
2019-05-03T03:10:26.285Z,99454.41
2019-05-03T03:15:29.291Z,99448.69
2019-05-03T03:20:35.581Z,99448.69
2019-05-03T03:25:40.256Z,99449.48
2019-05-03T03:31:20.556Z,99461.23
2019-05-03T03:36:43.906Z,99453.22
2019-05-03T03:41:30.641Z,99453.22
2019-05-03T03:46:35.785Z,99474.58
2019-05-03T03:51:39.687Z,99476.72
2019-05-03T03:56:55.875Z,99493.33
2019-05-03T04:01:48.986Z,99493.33
2019-05-03T04:06:56.095Z,99505.47
2019-05-03T04:11:58.387Z,99508.80
2019-05-03T04:17:19.844Z,99517.35
2019-05-03T04:22:25.427Z,99517.35
2019-05-03T04:27:29.172Z,99536.97
2019-05-03T04:32:33.029Z,99536.97
2019-05-03T04:37:36.802Z,99547.22
2019-05-03T04:42:40.580Z,99557.82
2019-05-03T04:47:46.285Z,99568.30
2019-05-03T04:52:49.984Z,99591.14
2019-05-03T04:57:56.085Z,99599.89
2019-05-03T05:02:59.269Z,99607.81
2019-05-03T05:08:05.668Z,99604.98
2019-05-03T05:13:08.593Z,99615.92
2019-05-03T05:18:18.311Z,99626.67
2019-05-03T05:23:22.196Z,99626.67
2019-05-03T05:28:35.620Z,99631.64
2019-05-03T05:33:39.351Z,99632.98
2019-05-03T05:38:45.067Z,99632.98
2019-05-03T05:43:48.701Z,99647.81
2019-05-03T05:48:53.070Z,99647.81
2019-05-03T05:53:56.878Z,99656.61
2019-05-03T05:59:08.147Z,99663.33
2019-05-03T06:04:11.953Z,99668.06
2019-05-03T06:09:35.601Z,99670.75
2019-05-03T06:14:49.705Z,99675.48
2019-05-03T06:20:15.624Z,99681.55
2019-05-03T06:25:27.813Z,99685.09
2019-05-03T06:30:37.971Z,99685.09
2019-05-03T06:35:41.763Z,99693.23
2019-05-03T06:40:45.938Z,99693.09
2019-05-03T06:45:50.563Z,99691.95
2019-05-03T06:50:55.804Z,99691.45
2019-05-03T06:55:59.773Z,99691.45
2019-05-03T07:01:28.441Z,99732.30
2019-05-03T07:07:06.348Z,99750.72
2019-05-03T07:12:10.218Z,99727.89
2019-05-03T07:17:14.470Z,99727.89
2019-05-03T07:22:18.455Z,99716.77
2019-05-03T07:27:22.256Z,99716.77
2019-05-03T07:32:26.079Z,99729.51
2019-05-03T07:37:29.858Z,99722.88
2019-05-03T07:42:34.681Z,99728.55
2019-05-03T07:47:38.692Z,99728.55
2019-05-03T07:52:42.473Z,99731.20
2019-05-03T07:57:51.104Z,99735.69
2019-05-03T08:02:58.210Z,99730.78
2019-05-03T08:08:02.072Z,99725.58
2019-05-03T08:13:05.946Z,99725.58
2019-05-03T08:18:09.707Z,99720.41
2019-05-03T08:23:24.472Z,99727.33
2019-05-03T08:28:18.972Z,99727.33
2019-05-03T08:33:44.796Z,99734.72
2019-05-03T08:38:48.867Z,99739.09
2019-05-03T08:43:54.865Z,99739.09
2019-05-03T08:48:58.154Z,99734.44
2019-05-03T08:54:01.957Z,99737.47
2019-05-03T08:59:05.747Z,99740.52
2019-05-03T09:04:09.544Z,99728.08
2019-05-03T09:09:41.374Z,99728.08
2019-05-03T09:14:48.248Z,99730.27
2019-05-03T09:19:50.669Z,99724.05
2019-05-03T09:24:54.689Z,99729.28
2019-05-03T09:29:58.549Z,99729.28
2019-05-03T09:35:02.366Z,99727.68
2019-05-03T09:40:06.247Z,99721.66
2019-05-03T09:45:10.102Z,99725.98
2019-05-03T09:50:15.614Z,99722.70
2019-05-03T09:55:47.551Z,99724.55
2019-05-03T10:00:52.329Z,99728.02
2019-05-03T10:05:56.147Z,99728.02
2019-05-03T10:11:15.108Z,99726.47
2019-05-03T10:16:18.207Z,99719.08
2019-05-03T10:21:25.761Z,99726.01
2019-05-03T10:26:29.598Z,99720.78
2019-05-03T10:31:40.957Z,99719.06
2019-05-03T10:36:44.790Z,99719.06
2019-05-03T10:41:48.659Z,99713.88
2019-05-03T10:46:52.478Z,99714.38
2019-05-03T10:52:01.174Z,99699.98
2019-05-03T10:57:15.764Z,99707.89
2019-05-03T11:02:37.020Z,99707.89
2019-05-03T11:07:40.919Z,99707.47
2019-05-03T11:12:44.706Z,99697.69
2019-05-03T11:17:48.512Z,99701.53
2019-05-03T11:22:52.299Z,99693.69
2019-05-03T11:27:57.073Z,99689.78
2019-05-03T11:33:11.795Z,99688.16
2019-05-03T11:38:21.533Z,99688.16
2019-05-03T11:43:25.331Z,99687.16
2019-05-03T11:48:29.112Z,99701.00
2019-05-03T11:53:32.974Z,99699.09
2019-05-03T11:58:36.775Z,99694.50
2019-05-03T12:03:44.859Z,99694.50
2019-05-03T12:08:48.429Z,99689.64
2019-05-03T12:14:10.429Z,99687.58
2019-05-03T12:19:20.055Z,99687.58
2019-05-03T12:24:20.404Z,99682.18
2019-05-03T12:29:24.680Z,99683.88
2019-05-03T12:34:28.544Z,99687.66
2019-05-03T12:39:35.415Z,99687.66
2019-05-03T12:44:37.870Z,99680.52
2019-05-03T12:49:41.632Z,99681.20
2019-05-03T12:54:45.662Z,99681.20
2019-05-03T13:00:08.312Z,99671.30
2019-05-03T13:05:12.086Z,99676.88
2019-05-03T13:10:21.680Z,99672.24
2019-05-03T13:15:21.439Z,99664.55
2019-05-03T13:20:25.195Z,99664.85
2019-05-03T13:25:29.068Z,99660.97
2019-05-03T13:30:34.535Z,99658.77
2019-05-03T13:35:38.596Z,99658.77
2019-05-03T13:40:42.369Z,99654.61
2019-05-03T13:45:46.140Z,99654.61
2019-05-03T13:50:49.925Z,99650.03
2019-05-03T13:55:55.207Z,99648.15
2019-05-03T14:00:59.179Z,99649.73
2019-05-03T14:06:07.630Z,99648.15
2019-05-03T14:11:09.117Z,99642.22
2019-05-03T14:16:14.418Z,99642.22
2019-05-03T14:21:27.231Z,99642.53
2019-05-03T14:26:31.148Z,99640.25
2019-05-03T14:31:35.001Z,99628.45
2019-05-03T14:36:38.814Z,99622.64
2019-05-03T14:41:46.497Z,99622.64
2019-05-03T14:46:48.225Z,99635.52
2019-05-03T14:51:52.043Z,99635.52
2019-05-03T14:57:09.657Z,99633.69
2019-05-03T15:02:39.814Z,99623.99
2019-05-03T15:07:31.450Z,99623.52
2019-05-03T15:12:35.946Z,99613.48
2019-05-03T15:17:40.002Z,99613.48
2019-05-03T15:22:45.427Z,99617.16
2019-05-03T15:27:49.475Z,99618.20
2019-05-03T15:32:57.744Z,99604.91
2019-05-03T15:37:58.835Z,99602.41
2019-05-03T15:43:10.446Z,99601.62
2019-05-03T15:48:20.174Z,99601.62
2019-05-03T15:53:24.648Z,99608.77
2019-05-03T15:58:28.708Z,99613.02
2019-05-03T16:03:32.500Z,99613.02
2019-05-03T16:08:36.315Z,99615.80
2019-05-03T16:13:40.136Z,99623.28
2019-05-03T16:18:44.858Z,99621.88
2019-05-03T16:23:48.970Z,99621.88
2019-05-03T16:28:58.896Z,99612.69
2019-05-03T16:34:04.297Z,99612.69
2019-05-03T16:39:08.457Z,99606.83
2019-05-03T16:44:12.268Z,99610.99
2019-05-03T16:49:16.115Z,99613.13
2019-05-03T16:54:22.342Z,99611.05
2019-05-03T16:59:26.128Z,99611.05
2019-05-03T17:04:39.194Z,99606.41
2019-05-03T17:09:53.480Z,99611.41
2019-05-03T17:14:57.280Z,99611.41
2019-05-03T17:20:01.064Z,99610.80
2019-05-03T17:25:06.558Z,99616.31
2019-05-03T17:30:10.507Z,99610.65
2019-05-03T17:35:14.540Z,99605.56
2019-05-03T17:40:49.602Z,99597.63
2019-05-03T17:45:55.574Z,99599.05
2019-05-03T17:50:59.442Z,99595.88
2019-05-03T17:56:11.800Z,99597.22
2019-05-03T18:01:37.371Z,99597.27
2019-05-03T18:06:47.674Z,99602.39
2019-05-03T18:11:56.562Z,99603.64
2019-05-03T18:17:00.436Z,99607.52
2019-05-03T18:22:05.199Z,99608.11
2019-05-03T18:27:09.208Z,99604.92
2019-05-03T18:32:14.390Z,99604.92
2019-05-03T18:37:18.934Z,99615.67
2019-05-03T18:42:30.821Z,99616.92
2019-05-03T18:47:34.768Z,99621.19
2019-05-03T18:52:38.533Z,99621.19
2019-05-03T18:57:42.373Z,99623.28
2019-05-03T19:02:48.414Z,99624.72
2019-05-03T19:08:09.523Z,99624.72
2019-05-03T19:13:23.737Z,99630.34
2019-05-03T19:18:35.414Z,99635.46
2019-05-03T19:23:39.332Z,99626.90
2019-05-03T19:28:44.447Z,99628.39
2019-05-03T19:33:48.617Z,99621.73
2019-05-03T19:38:54.521Z,99602.28
2019-05-03T19:43:57.912Z,99626.60
2019-05-03T19:49:01.727Z,99620.87
2019-05-03T19:54:05.571Z,99614.36
2019-05-03T19:59:11.833Z,99611.88
2019-05-03T20:04:40.540Z,99608.34
2019-05-03T20:09:44.626Z,99605.81
2019-05-03T20:14:48.471Z,99605.81
2019-05-03T20:19:52.237Z,99601.43
2019-05-03T20:24:56.032Z,99601.43
2019-05-03T20:29:59.835Z,99604.91
2019-05-03T20:35:14.585Z,99607.64
2019-05-03T20:40:09.592Z,99607.64
2019-05-03T20:45:18.510Z,99600.77
2019-05-03T20:50:22.317Z,99600.77
2019-05-03T20:55:26.111Z,99597.38
2019-05-03T21:00:29.924Z,99593.09
2019-05-03T21:05:35.393Z,99593.09
2019-05-03T21:10:39.240Z,99591.59
2019-05-03T21:15:54.117Z,99591.59
2019-05-03T21:21:20.874Z,99585.88
2019-05-03T21:26:25.412Z,99581.34
2019-05-03T21:31:29.280Z,99577.16
2019-05-03T21:36:34.860Z,99575.62
2019-05-03T21:41:38.879Z,99569.59
2019-05-03T21:46:47.386Z,99560.68
2019-05-03T21:51:53.543Z,99568.52
2019-05-03T21:56:58.039Z,99569.74
2019-05-03T22:02:02.024Z,99569.74
2019-05-03T22:07:05.895Z,99568.25
2019-05-03T22:12:09.673Z,99563.98
2019-05-03T22:17:31.184Z,99550.75
2019-05-03T22:22:41.754Z,99556.97
2019-05-03T22:27:45.683Z,99555.44
2019-05-03T22:32:49.480Z,99561.16
2019-05-03T22:37:54.920Z,99554.55
2019-05-03T22:42:58.921Z,99554.55
2019-05-03T22:48:02.685Z,99550.17
2019-05-03T22:53:06.501Z,99547.83
2019-05-03T22:58:10.306Z,99535.27
2019-05-03T23:03:14.507Z,99532.58
2019-05-03T23:08:18.407Z,99522.80
2019-05-03T23:13:22.191Z,99517.80
2019-05-03T23:18:26.029Z,99513.38
2019-05-03T23:23:48.100Z,99506.39
2019-05-03T23:28:51.906Z,99506.39
2019-05-03T23:33:55.676Z,99475.86
2019-05-03T23:38:59.445Z,99484.04
2019-05-03T23:44:04.779Z,99484.04
2019-05-03T23:49:08.621Z,99482.20
2019-05-03T23:54:12.386Z,99482.84
2019-05-03T23:59:16.169Z,99477.59
